Hovedside
METAR-TAF:

METAR-TAF

Lufthavner :

Växjö lufthavn

Växjö, Sverige

breddegrad: 56-51N, lengdegrad: 014-50E, høyde over havet: 199 m

Gjeldene værobservasjon

Denne rapporten ble laget for 21 minutter siden, klokken 06:50 UTC
Vind 5 kt fra skiftende retning
Temperatur 17°C
Luftfuktighet 94%
Trykk 1006 hPa
Sikt 10 km eller mer
Brutte skyer i en høyde av 700 ft

METAR: ESMX 140650Z VRB05KT 9999 BKN007 17/16 Q1006

Tid: 09:11 (07:11 UTC)

Varsel

Denne rapporten ble laget for 1 time og 30 minutter siden, klokken 05:41 UTC
Varsel gyldig fra 14. klokken 06 UTC til 14. klokken 15 UTC
Vind 5 kt fra Sør-sørøst
Sikt 10 km eller mer
Overskyet i en høyde av 400 ft
Blir
fra 14. klokken 06 UTC til 14. klokken 08 UTC
Brutte skyer i en høyde av 700 ft
Sannsynlighet 40%
fra 14. klokken 08 UTC til 14. klokken 15 UTC
Brutte skyer i en høyde av 3000 ft, Bygeskyer.
regnbyger

TAF: ESMX 140541Z 1406/1415 15005KT 9999 OVC004 BECMG 1406/1408 BKN007 PROB40 1408/1415 SHRA BKN030CB

Værobservasjoner og værvarsel for over 4000 flyplasser (METAR- og TAF-rapporter).

Tilgjengelige stasjoner er representert av de røde og gule prikkene på kartet.

Hold musepekeren over prikken for å se navnet på stasjonen.

Klikk så for å se værobservasjoner og -varsler.

For å forandre kartet kan du klikke på den grønne knappen med svart kryss for å zoome inn, på den grønne knappen med strek for å zoome ut, eller på de grønne pilene for å se tilstøtende kart.


METAR-TAF: